NORTHEAST SUFFOLK  -  Frost Advisory Frost Advisory        NORTHWEST SUFFOLK  -  Frost Advisory Frost Advisory        SOUTHEAST SUFFOLK  -  Frost Advisory Frost Advisory        SOUTHWEST SUFFOLK  -  Frost Advisory Frost Advisory      

Active alerts

Northwest Suffolk
  Details for Northwest Suffolk Frost Advisory
Southwest Suffolk
  Details for Southwest Suffolk Frost Advisory
Northeast Suffolk
  Details for Northeast Suffolk Frost Advisory
Southeast Suffolk
  Details for Southeast Suffolk Frost Advisory


WXM80 ListenWXM80 Stop

You find our weather info also at:

UK Metoffice

WeatherCloud

Weather Underground

Northeastern Weather Network

AWEKAS

Citizen Weather Observer Program (CWOP)

HAMweather, WeatherForYou, PWS Weather


Weather Underground History page Text

Daily Summary for January 29, 2017 Units:  English    Metric   Both
« Previous Day
Next Day »
Daily Weekly Monthly Yearly Custom
  High: Low: Average:
Temperature: 43.7 °F 30.1 °F 36.2 °F
Dew Point: 29.5 °F 18.5 °F 23.5 °F
Humidity: 82 % 38 % 61 %
Wind Speed: 11.0 mph 0.0 mph 2.4 mph
Wind Gust: 17.0 mph - -
Wind:- - WSW
Pressure: 29.71 in 29.63 in -
Precipitation: 0.00 in    
Historical Graphs
 
 
Tabular Data for January 29, 2017
Time Temperature Dew Point Pressure Wind Wind Speed Wind Gust Humidity Rainfall Rate (Hourly)
00:04 34.6 °F 24.8 °F 29.71 in SW 1.1 mph 2.3 mph 67 % 0.00 in
00:09 34.6 °F 25.1 °F 29.70 in SSW 1.0 mph 4.6 mph 68 % 0.00 in
00:14 34.7 °F 24.9 °F 29.70 in SSW 0.5 mph 3.5 mph 67 % 0.00 in
00:19 34.8 °F 25.3 °F 29.70 in SW 0.9 mph 2.3 mph 68 % 0.00 in
00:24 34.8 °F 25.0 °F 29.70 in SW 2.2 mph 3.5 mph 67 % 0.00 in
00:29 34.8 °F 25.3 °F 29.70 in SW 0.5 mph 1.2 mph 68 % 0.00 in
00:34 34.8 °F 25.3 °F 29.69 in SW 0.1 mph 1.2 mph 68 % 0.00 in
00:39 34.7 °F 24.9 °F 29.69 in Calm   1.2 mph 67 % 0.00 in
00:44 34.7 °F 24.9 °F 29.69 in Calm     67 % 0.00 in
00:49 34.6 °F 25.1 °F 29.69 in Calm     68 % 0.00 in
00:54 34.5 °F 24.7 °F 29.69 in Calm     67 % 0.00 in
00:59 34.3 °F 24.8 °F 29.68 in Calm     68 % 0.00 in
01:04 34.2 °F 24.7 °F 29.68 in Calm     68 % 0.00 in
01:09 34.0 °F 24.9 °F 29.68 in Calm     69 % 0.00 in
01:14 33.8 °F 24.7 °F 29.67 in Calm     69 % 0.00 in
01:19 33.5 °F 24.8 °F 29.67 in Calm     70 % 0.00 in
01:24 33.2 °F 24.5 °F 29.67 in Calm     70 % 0.00 in
01:30 33.0 °F 24.3 °F 29.68 in Calm     70 % 0.00 in
01:35 32.7 °F 24.3 °F 29.67 in Calm     71 % 0.00 in
01:40 32.5 °F 24.5 °F 29.68 in SW 0.1 mph 1.2 mph 72 % 0.00 in
01:45 32.2 °F 24.2 °F 29.68 in Calm     72 % 0.00 in
01:50 32.0 °F 24.3 °F 29.68 in Calm     73 % 0.00 in
01:55 31.7 °F 24.0 °F 29.68 in Calm   1.0 mph 73 % 0.00 in
02:00 31.6 °F 24.3 °F 29.68 in Calm     74 % 0.00 in
02:05 31.4 °F 24.1 °F 29.68 in Calm     74 % 0.00 in
02:10 31.2 °F 23.9 °F 29.68 in SW 0.4 mph 2.3 mph 74 % 0.00 in
02:15 31.1 °F 24.1 °F 29.68 in SW 0.5 mph 2.3 mph 75 % 0.00 in
02:20 31.1 °F 24.1 °F 29.68 in Calm   1.2 mph 75 % 0.00 in
02:25 31.0 °F 24.3 °F 29.68 in Calm   1.2 mph 76 % 0.00 in
02:30 30.9 °F 24.2 °F 29.68 in Calm     76 % 0.00 in
02:35 30.8 °F 24.4 °F 29.68 in Calm     77 % 0.00 in
02:40 30.8 °F 24.7 °F 29.68 in SSW 0.4 mph 1.0 mph 78 % 0.00 in
02:45 30.8 °F 24.7 °F 29.68 in SSW 0.4 mph 2.0 mph 78 % 0.00 in
02:50 30.8 °F 24.7 °F 29.68 in Calm     78 % 0.00 in
02:55 30.7 °F 24.7 °F 29.67 in SSW 0.5 mph 1.0 mph 78 % 0.00 in
03:00 30.8 °F 25.1 °F 29.67 in Calm   1.2 mph 79 % 0.00 in
03:06 30.7 °F 25.0 °F 29.67 in SSW 0.1 mph 1.2 mph 79 % 0.00 in
03:11 30.7 °F 25.3 °F 29.67 in Calm     80 % 0.00 in
03:16 30.7 °F 25.3 °F 29.67 in Calm   1.2 mph 80 % 0.00 in
03:21 30.7 °F 25.3 °F 29.67 in Calm   1.2 mph 80 % 0.00 in
03:26 30.6 °F 25.2 °F 29.67 in SSW 0.5 mph 2.3 mph 80 % 0.00 in
03:31 30.6 °F 25.2 °F 29.67 in SW 0.9 mph 2.3 mph 80 % 0.00 in
03:36 30.6 °F 25.2 °F 29.67 in SW 0.1 mph 2.0 mph 80 % 0.00 in
03:41 30.6 °F 25.2 °F 29.67 in SW 1.1 mph 2.3 mph 80 % 0.00 in
03:46 30.6 °F 25.2 °F 29.66 in Calm     80 % 0.00 in
03:51 30.5 °F 25.1 °F 29.67 in SW 0.7 mph 2.3 mph 80 % 0.00 in
03:56 30.5 °F 25.1 °F 29.67 in SW 0.4 mph 2.0 mph 80 % 0.00 in
04:01 30.4 °F 25.0 °F 29.67 in Calm     80 % 0.00 in
04:06 30.3 °F 24.9 °F 29.67 in Calm   1.2 mph 80 % 0.00 in
04:11 30.2 °F 24.8 °F 29.67 in SSW 0.3 mph 1.2 mph 80 % 0.00 in
04:16 30.2 °F 24.8 °F 29.67 in SSW 0.7 mph 2.3 mph 80 % 0.00 in
04:21 30.1 °F 25.0 °F 29.67 in SSW 0.9 mph 3.0 mph 81 % 0.00 in
04:26 30.1 °F 25.0 °F 29.67 in SSW 0.6 mph 3.5 mph 81 % 0.00 in
04:31 30.1 °F 25.3 °F 29.68 in WSW 1.8 mph 3.5 mph 82 % 0.00 in
04:37 30.1 °F 25.3 °F 29.68 in SSW 4.5 mph 4.5 mph 82 % 0.00 in
04:42 30.3 °F 25.5 °F 29.68 in SW 2.7 mph 4.0 mph 82 % 0.00 in
04:47 30.5 °F 25.7 °F 29.68 in SW 3.4 mph 5.8 mph 82 % 0.00 in
04:52 30.8 °F 26.0 °F 29.68 in WSW 3.2 mph 6.0 mph 82 % 0.00 in
04:57 31.2 °F 26.3 °F 29.68 in South 3.7 mph 6.9 mph 82 % 0.00 in
05:02 31.5 °F 26.6 °F 29.68 in SSW 1.8 mph 4.0 mph 82 % 0.00 in
05:07 31.8 °F 26.9 °F 29.68 in SW 1.6 mph 3.5 mph 82 % 0.00 in
05:12 32.0 °F 26.8 °F 29.68 in SW 3.1 mph 4.6 mph 81 % 0.00 in
05:17 32.1 °F 26.9 °F 29.68 in SW 2.2 mph 3.5 mph 81 % 0.00 in
05:22 32.2 °F 27.0 °F 29.68 in SW 2.4 mph 4.6 mph 81 % 0.00 in
05:27 32.3 °F 26.8 °F 29.68 in SW 0.1 mph 1.0 mph 80 % 0.00 in
05:32 32.3 °F 26.8 °F 29.68 in SW 1.0 mph 4.0 mph 80 % 0.00 in
05:37 32.4 °F 26.6 °F 29.68 in SW 1.2 mph 3.5 mph 79 % 0.00 in
05:42 32.4 °F 26.6 °F 29.68 in SW 2.6 mph 4.0 mph 79 % 0.00 in
05:47 32.3 °F 26.5 °F 29.68 in SW 1.8 mph 4.6 mph 79 % 0.00 in
05:52 32.3 °F 26.2 °F 29.68 in SW 1.5 mph 3.0 mph 78 % 0.00 in
05:57 32.3 °F 26.2 °F 29.68 in SW 1.2 mph 2.3 mph 78 % 0.00 in
06:07 32.3 °F 26.2 °F 29.67 in SSW 1.2 mph 2.3 mph 78 % 0.00 in
06:12 32.3 °F 26.2 °F 29.67 in SW 1.5 mph 3.5 mph 78 % 0.00 in
06:17 32.3 °F 26.2 °F 29.68 in South 0.2 mph 3.5 mph 78 % 0.00 in
06:22 32.4 °F 26.3 °F 29.67 in Calm     78 % 0.00 in
06:27 32.4 °F 26.3 °F 29.68 in SSW 0.7 mph 3.5 mph 78 % 0.00 in
06:33 32.4 °F 26.3 °F 29.67 in SW 2.0 mph 3.5 mph 78 % 0.00 in
06:38 32.4 °F 26.3 °F 29.67 in Calm   1.2 mph 78 % 0.00 in
06:43 32.4 °F 26.3 °F 29.67 in SSW 2.3 mph 3.5 mph 78 % 0.00 in
06:48 32.5 °F 26.4 °F 29.67 in SW 1.7 mph 3.5 mph 78 % 0.00 in
06:53 32.5 °F 26.4 °F 29.67 in SW 1.4 mph 3.5 mph 78 % 0.00 in
06:58 32.5 °F 26.4 °F 29.67 in SSW 1.3 mph 3.5 mph 78 % 0.00 in
07:03 32.6 °F 26.5 °F 29.67 in WSW 1.9 mph 3.5 mph 78 % 0.00 in
07:08 32.6 °F 26.2 °F 29.67 in SW 1.0 mph 3.5 mph 77 % 0.00 in
07:13 32.7 °F 26.3 °F 29.67 in SW 0.6 mph 2.3 mph 77 % 0.00 in
07:18 32.7 °F 26.3 °F 29.67 in SW 0.8 mph 3.5 mph 77 % 0.00 in
07:23 32.8 °F 26.4 °F 29.67 in SW 0.9 mph 4.6 mph 77 % 0.00 in
07:28 32.9 °F 26.5 °F 29.67 in SW 0.9 mph 3.5 mph 77 % 0.00 in
07:33 33.0 °F 26.3 °F 29.68 in SW 2.4 mph 3.5 mph 76 % 0.00 in
07:38 33.2 °F 26.5 °F 29.67 in WSW 3.6 mph 4.6 mph 76 % 0.00 in
07:43 33.5 °F 26.4 °F 29.68 in SW 1.0 mph 3.5 mph 75 % 0.00 in
07:48 33.7 °F 26.3 °F 29.68 in WSW 0.9 mph 3.5 mph 74 % 0.00 in
07:53 33.9 °F 26.5 °F 29.68 in SSW 2.7 mph 4.0 mph 74 % 0.00 in
07:58 34.2 °F 26.4 °F 29.68 in SW 2.5 mph 6.0 mph 73 % 0.00 in
08:04 34.4 °F 27.0 °F 29.68 in SSW 3.2 mph 4.0 mph 74 % 0.00 in
08:09 34.6 °F 26.8 °F 29.68 in SW 3.0 mph 8.0 mph 73 % 0.00 in
08:14 34.8 °F 27.0 °F 29.68 in SW 1.0 mph 7.0 mph 73 % 0.00 in
08:19 35.1 °F 27.3 °F 29.68 in SW 1.0 mph 12.0 mph 73 % 0.00 in
08:24 35.4 °F 27.3 °F 29.68 in South 4.2 mph 4.6 mph 72 % 0.00 in
08:29 35.7 °F 27.2 °F 29.69 in SSW 6.0 mph 12.0 mph 71 % 0.00 in
08:34 36.1 °F 27.3 °F 29.69 in SSW 5.0 mph 12.0 mph 70 % 0.00 in
08:39 36.4 °F 27.2 °F 29.68 in SW 6.0 mph 10.0 mph 69 % 0.00 in
08:44 36.8 °F 27.6 °F 29.69 in SW 6.0 mph 12.0 mph 69 % 0.00 in
08:49 37.1 °F 27.5 °F 29.69 in SW 2.0 mph 12.0 mph 68 % 0.00 in
08:54 37.4 °F 27.8 °F 29.69 in SW 5.0 mph 13.0 mph 68 % 0.00 in
08:59 37.7 °F 28.1 °F 29.69 in SW 5.9 mph 6.9 mph 68 % 0.00 in
09:04 37.9 °F 28.3 °F 29.68 in SSW 6.0 mph 12.0 mph 68 % 0.00 in
09:09 38.2 °F 28.2 °F 29.69 in SSW 6.0 mph 12.0 mph 67 % 0.00 in
09:14 38.6 °F 28.6 °F 29.69 in SW 5.0 mph 14.0 mph 67 % 0.00 in
09:19 38.9 °F 28.5 °F 29.68 in SW 6.0 mph 12.0 mph 66 % 0.00 in
09:24 39.1 °F 28.7 °F 29.69 in SW 5.0 mph 10.0 mph 66 % 0.00 in
09:29 39.4 °F 28.6 °F 29.69 in SW 5.0 mph 10.0 mph 65 % 0.00 in
09:33 39.6 °F 28.8 °F 29.69 in SW 2.2 mph 5.8 mph 65 % 0.00 in
09:39 39.8 °F 28.6 °F 29.69 in WSW 2.0 mph 8.0 mph 64 % 0.00 in
09:44 40.0 °F 28.8 °F 29.70 in WSW 5.0 mph 10.0 mph 64 % 0.00 in
09:49 40.1 °F 28.9 °F 29.69 in WSW 7.0 mph 10.0 mph 64 % 0.00 in
09:54 40.3 °F 29.1 °F 29.69 in West 5.8 mph 11.5 mph 64 % 0.00 in
09:59 40.6 °F 29.0 °F 29.70 in WNW 5.4 mph 9.2 mph 63 % 0.00 in
10:04 41.1 °F 29.5 °F 29.70 in SSW 2.7 mph 10.4 mph 63 % 0.00 in
10:09 41.4 °F 28.5 °F 29.70 in West 7.4 mph 13.8 mph 60 % 0.00 in
10:14 41.3 °F 27.6 °F 29.70 in West 8.7 mph 13.8 mph 58 % 0.00 in
10:19 41.4 °F 28.1 °F 29.69 in West 4.1 mph 7.0 mph 59 % 0.00 in
10:24 41.7 °F 28.0 °F 29.69 in West 6.9 mph 11.5 mph 58 % 0.00 in
10:29 42.0 °F 27.0 °F 29.69 in WNW 6.8 mph 10.4 mph 55 % 0.00 in
10:34 42.1 °F 26.6 °F 29.69 in NW 3.5 mph 8.1 mph 54 % 0.00 in
10:39 41.9 °F 26.9 °F 29.69 in WSW 7.2 mph 10.4 mph 55 % 0.00 in
10:44 41.8 °F 26.8 °F 29.69 in WSW 5.0 mph 8.1 mph 55 % 0.00 in
10:49 41.8 °F 26.4 °F 29.69 in SW 7.8 mph 12.7 mph 54 % 0.00 in
10:54 41.5 °F 26.1 °F 29.69 in WSW 4.2 mph 16.1 mph 54 % 0.00 in
10:59 41.1 °F 25.7 °F 29.69 in WSW 4.5 mph 10.4 mph 54 % 0.00 in
11:04 40.9 °F 26.0 °F 29.69 in WSW 6.4 mph 9.2 mph 55 % 0.00 in
11:09 40.6 °F 26.1 °F 29.69 in West 6.7 mph 9.2 mph 56 % 0.00 in
11:14 40.6 °F 26.1 °F 29.69 in WSW 6.3 mph 11.0 mph 56 % 0.00 in
11:20 40.7 °F 25.8 °F 29.69 in SW 7.7 mph 12.7 mph 55 % 0.00 in
11:25 40.6 °F 25.7 °F 29.68 in WSW 3.4 mph 9.2 mph 55 % 0.00 in
11:30 40.7 °F 25.8 °F 29.68 in WSW 8.1 mph 12.7 mph 55 % 0.00 in
11:35 40.9 °F 26.0 °F 29.68 in SW 9.1 mph 15.0 mph 55 % 0.00 in
11:40 41.1 °F 25.7 °F 29.68 in West 7.8 mph 13.0 mph 54 % 0.00 in
11:44 41.2 °F 25.8 °F 29.68 in West 4.7 mph 9.2 mph 54 % 0.00 in
11:49 41.4 °F 26.0 °F 29.68 in WSW 6.5 mph 13.8 mph 54 % 0.00 in
11:54 41.6 °F 26.2 °F 29.67 in WSW 9.3 mph 15.0 mph 54 % 0.00 in
11:59 41.6 °F 25.3 °F 29.67 in SW 5.3 mph 11.5 mph 52 % 0.00 in
12:04 41.7 °F 24.4 °F 29.67 in WSW 6.7 mph 9.2 mph 50 % 0.00 in
12:09 41.8 °F 24.0 °F 29.67 in West 11.0 mph 12.7 mph 49 % 0.00 in
12:14 41.7 °F 23.4 °F 29.67 in WNW 5.8 mph 13.0 mph 48 % 0.00 in
12:19 41.7 °F 22.9 °F 29.66 in WSW 8.7 mph 17.0 mph 47 % 0.00 in
12:24 41.8 °F 22.5 °F 29.66 in WNW 7.3 mph 11.5 mph 46 % 0.00 in
12:29 42.0 °F 23.2 °F 29.66 in WSW 7.6 mph 9.2 mph 47 % 0.00 in
12:34 42.2 °F 23.9 °F 29.66 in SSW 6.4 mph 8.0 mph 48 % 0.00 in
12:40 42.4 °F 23.1 °F 29.65 in NW 5.7 mph 11.5 mph 46 % 0.00 in
12:45 42.6 °F 23.2 °F 29.65 in NNW 1.6 mph 5.8 mph 46 % 0.00 in
12:50 42.7 °F 22.8 °F 29.65 in WNW 6.7 mph 12.0 mph 45 % 0.00 in
12:55 42.6 °F 22.2 °F 29.65 in WSW 6.8 mph 11.5 mph 44 % 0.00 in
13:00 42.5 °F 22.6 °F 29.65 in West 5.5 mph 10.4 mph 45 % 0.00 in
13:05 42.5 °F 22.1 °F 29.65 in SW 4.0 mph 9.2 mph 44 % 0.00 in
13:10 42.6 °F 22.2 °F 29.64 in WNW 6.4 mph 10.4 mph 44 % 0.00 in
13:15 42.8 °F 22.9 °F 29.64 in NW 5.6 mph 8.1 mph 45 % 0.00 in
13:20 42.8 °F 22.4 °F 29.64 in West 8.0 mph 12.7 mph 44 % 0.00 in
13:25 42.6 °F 22.2 °F 29.64 in WSW 5.8 mph 9.2 mph 44 % 0.00 in
13:30 42.6 °F 22.2 °F 29.64 in WSW 5.4 mph 9.2 mph 44 % 0.00 in
13:35 42.9 °F 23.0 °F 29.64 in West 6.8 mph 13.0 mph 45 % 0.00 in
13:40 43.0 °F 22.5 °F 29.63 in West 4.4 mph 5.8 mph 44 % 0.00 in
13:45 43.1 °F 23.2 °F 29.63 in West 2.5 mph 6.0 mph 45 % 0.00 in
13:50 43.3 °F 23.4 °F 29.63 in NNW 5.8 mph 8.1 mph 45 % 0.00 in
13:55 43.4 °F 22.4 °F 29.63 in SW 7.2 mph 9.0 mph 43 % 0.00 in
14:00 43.5 °F 22.5 °F 29.63 in WNW 4.4 mph 8.1 mph 43 % 0.00 in
14:06 43.6 °F 23.6 °F 29.63 in WSW 6.1 mph 10.0 mph 45 % 0.00 in
14:11 43.6 °F 23.1 °F 29.63 in WNW 7.3 mph 9.2 mph 44 % 0.00 in
14:16 43.6 °F 22.5 °F 29.63 in SW 2.4 mph 5.0 mph 43 % 0.00 in
14:21 43.7 °F 23.7 °F 29.63 in NW 4.2 mph 5.8 mph 45 % 0.00 in
14:26 43.6 °F 22.0 °F 29.63 in NW 4.3 mph 8.1 mph 42 % 0.00 in
14:31 43.4 °F 21.2 °F 29.63 in WNW 2.1 mph 5.8 mph 41 % 0.00 in
14:36 43.3 °F 21.7 °F 29.63 in WNW 7.4 mph 10.4 mph 42 % 0.00 in
14:41 43.1 °F 19.8 °F 29.63 in West 4.2 mph 8.1 mph 39 % 0.00 in
14:42 43.1 °F 19.8 °F 29.64 in WNW 3.1 mph 8.1 mph 39 % 0.00 in
14:47 42.9 °F 19.0 °F 29.64 in NW 5.1 mph 9.2 mph 38 % 0.00 in
14:52 42.7 °F 18.8 °F 29.64 in NW 3.7 mph 9.2 mph 38 % 0.00 in
14:57 42.6 °F 19.9 °F 29.64 in WNW 3.2 mph 10.4 mph 40 % 0.00 in
15:02 42.5 °F 19.3 °F 29.64 in NW 4.3 mph 9.2 mph 39 % 0.00 in
15:07 42.4 °F 19.2 °F 29.64 in WNW 6.5 mph 11.5 mph 39 % 0.00 in
15:12 42.2 °F 19.0 °F 29.64 in West 4.2 mph 6.9 mph 39 % 0.00 in
15:17 42.1 °F 18.9 °F 29.64 in WNW 2.3 mph 4.6 mph 39 % 0.00 in
15:22 42.0 °F 19.4 °F 29.65 in WNW 2.9 mph 4.6 mph 40 % 0.00 in
15:27 41.9 °F 19.3 °F 29.65 in WNW 1.7 mph 3.5 mph 40 % 0.00 in
15:32 41.9 °F 18.7 °F 29.65 in SW 2.6 mph 5.0 mph 39 % 0.00 in
15:37 41.8 °F 18.6 °F 29.65 in WNW 3.8 mph 6.9 mph 39 % 0.00 in
15:42 41.7 °F 18.5 °F 29.65 in WNW 4.4 mph 5.8 mph 39 % 0.00 in
15:47 41.7 °F 18.5 °F 29.66 in SW 2.6 mph 5.8 mph 39 % 0.00 in
15:52 41.6 °F 19.0 °F 29.66 in WNW 2.5 mph 5.8 mph 40 % 0.00 in
15:57 41.6 °F 19.6 °F 29.65 in WNW 2.4 mph 5.0 mph 41 % 0.00 in
16:03 41.6 °F 19.6 °F 29.66 in NW 2.9 mph 5.8 mph 41 % 0.00 in
16:08 41.5 °F 20.1 °F 29.66 in SW 3.5 mph 6.0 mph 42 % 0.00 in
16:13 41.5 °F 20.1 °F 29.66 in West 1.8 mph 6.9 mph 42 % 0.00 in
16:18 41.4 °F 20.0 °F 29.66 in West 5.4 mph 11.5 mph 42 % 0.00 in
16:23 41.3 °F 19.9 °F 29.66 in West 3.7 mph 10.0 mph 42 % 0.00 in
16:28 41.2 °F 20.4 °F 29.66 in WNW 5.7 mph 9.2 mph 43 % 0.00 in
16:33 41.1 °F 20.3 °F 29.66 in WSW 4.8 mph 7.0 mph 43 % 0.00 in
16:38 40.9 °F 20.1 °F 29.66 in West 3.8 mph 8.1 mph 43 % 0.00 in
16:43 40.7 °F 19.9 °F 29.66 in SW 3.7 mph 8.1 mph 43 % 0.00 in
16:48 40.6 °F 19.8 °F 29.67 in WSW 3.1 mph 5.0 mph 43 % 0.00 in
16:53 40.4 °F 20.2 °F 29.67 in WNW 4.8 mph 8.1 mph 44 % 0.00 in
16:58 40.2 °F 19.5 °F 29.67 in NW 3.6 mph 9.0 mph 43 % 0.00 in
17:03 40.1 °F 19.4 °F 29.67 in West 5.5 mph 7.0 mph 43 % 0.00 in
17:08 40.0 °F 19.8 °F 29.67 in West 4.5 mph 9.2 mph 44 % 0.00 in
17:13 39.8 °F 19.6 °F 29.67 in WNW 3.0 mph 8.1 mph 44 % 0.00 in
17:18 39.8 °F 20.2 °F 29.67 in WNW 5.3 mph 6.9 mph 45 % 0.00 in
17:23 39.6 °F 20.5 °F 29.67 in WSW 4.2 mph 6.9 mph 46 % 0.00 in
17:29 39.5 °F 20.9 °F 29.68 in WNW 1.8 mph 9.2 mph 47 % 0.00 in
17:34 39.4 °F 21.8 °F 29.68 in West 2.0 mph 4.0 mph 49 % 0.00 in
17:39 39.3 °F 22.2 °F 29.68 in Calm   5.0 mph 50 % 0.00 in
17:44 39.2 °F 22.6 °F 29.68 in WNW 1.0 mph 7.0 mph 51 % 0.00 in
17:49 39.1 °F 23.4 °F 29.68 in Calm   5.0 mph 53 % 0.00 in
17:54 38.9 °F 23.7 °F 29.68 in WSW 1.0 mph 8.0 mph 54 % 0.00 in
17:59 38.8 °F 23.6 °F 29.68 in SW 0.4 mph 2.3 mph 54 % 0.00 in
18:04 38.6 °F 22.9 °F 29.68 in SW 0.4 mph 2.3 mph 53 % 0.00 in
18:09 38.4 °F 22.3 °F 29.68 in Calm   1.2 mph 52 % 0.00 in
18:14 38.2 °F 21.6 °F 29.68 in SW 0.2 mph 1.2 mph 51 % 0.00 in
18:19 37.9 °F 21.8 °F 29.69 in SW 0.3 mph 2.3 mph 52 % 0.00 in
18:24 37.6 °F 21.1 °F 29.69 in Calm   1.2 mph 51 % 0.00 in
18:29 37.4 °F 20.9 °F 29.69 in WSW 1.2 mph 3.0 mph 51 % 0.00 in
18:34 37.3 °F 21.3 °F 29.69 in WSW 1.8 mph 3.5 mph 52 % 0.00 in
18:39 37.1 °F 21.5 °F 29.69 in SW 0.1 mph   53 % 0.00 in
18:44 37.0 °F 21.4 °F 29.69 in SW 0.1 mph 1.2 mph 53 % 0.00 in
18:49 36.9 °F 21.3 °F 29.69 in SW 1.8 mph 4.0 mph 53 % 0.00 in
18:54 36.7 °F 21.2 °F 29.69 in SW 1.8 mph 2.3 mph 53 % 0.00 in
18:59 36.6 °F 21.1 °F 29.69 in SW 1.3 mph 2.3 mph 53 % 0.00 in
19:05 36.4 °F 20.9 °F 29.69 in SW 0.3 mph 1.2 mph 53 % 0.00 in
19:10 36.2 °F 20.7 °F 29.69 in SW 0.3 mph 3.5 mph 53 % 0.00 in
19:15 36.0 °F 20.5 °F 29.69 in SW 0.2 mph 1.2 mph 53 % 0.00 in
19:20 35.9 °F 20.4 °F 29.70 in SW 0.2 mph 2.3 mph 53 % 0.00 in
19:25 35.7 °F 20.2 °F 29.70 in SW 0.3 mph 1.2 mph 53 % 0.00 in
19:30 35.5 °F 20.5 °F 29.70 in SW 0.6 mph 2.3 mph 54 % 0.00 in
19:35 35.3 °F 20.3 °F 29.70 in SW 1.0 mph 3.5 mph 54 % 0.00 in
19:40 35.1 °F 20.5 °F 29.70 in SW 0.5 mph 2.3 mph 55 % 0.00 in
19:45 35.0 °F 20.4 °F 29.70 in SW 0.1 mph 2.3 mph 55 % 0.00 in
19:50 34.8 °F 20.3 °F 29.70 in SW 0.6 mph 1.2 mph 55 % 0.00 in
19:55 34.7 °F 20.2 °F 29.70 in SW 0.1 mph 1.2 mph 55 % 0.00 in
20:00 34.6 °F 20.1 °F 29.70 in SW 0.2 mph 2.3 mph 55 % 0.00 in
20:05 34.5 °F 20.0 °F 29.70 in SW 0.9 mph 4.0 mph 55 % 0.00 in
20:10 34.4 °F 20.3 °F 29.70 in SW 0.2 mph 2.3 mph 56 % 0.00 in
20:15 34.2 °F 20.1 °F 29.70 in SW 1.0 mph 2.3 mph 56 % 0.00 in
20:20 34.1 °F 20.0 °F 29.70 in SW 0.4 mph 2.3 mph 56 % 0.00 in
20:22 34.1 °F 20.4 °F 29.70 in SW 1.9 mph 3.5 mph 57 % 0.00 in
20:27 34.1 °F 20.4 °F 29.70 in SW 0.8 mph 2.3 mph 57 % 0.00 in
20:32 33.9 °F 20.3 °F 29.70 in SW 0.4 mph 2.3 mph 57 % 0.00 in
20:37 33.9 °F 20.7 °F 29.70 in SW 0.2 mph 1.2 mph 58 % 0.00 in
20:42 33.8 °F 20.6 °F 29.70 in SW 0.4 mph 1.2 mph 58 % 0.00 in
20:47 33.6 °F 20.4 °F 29.70 in SW 0.6 mph 1.2 mph 58 % 0.00 in
20:52 33.5 °F 20.7 °F 29.70 in SW 0.2 mph 1.2 mph 59 % 0.00 in
20:57 33.4 °F 20.6 °F 29.70 in SW 0.9 mph 3.5 mph 59 % 0.00 in
21:02 33.3 °F 20.5 °F 29.70 in Calm   2.3 mph 59 % 0.00 in
21:07 33.3 °F 20.9 °F 29.70 in SW 0.6 mph 2.3 mph 60 % 0.00 in
21:12 33.2 °F 20.4 °F 29.70 in SW 0.2 mph 1.2 mph 59 % 0.00 in
21:17 33.1 °F 20.3 °F 29.70 in SW 0.2 mph 1.2 mph 59 % 0.00 in
21:23 33.0 °F 20.6 °F 29.70 in SW 0.3 mph 2.3 mph 60 % 0.00 in
21:28 33.0 °F 20.6 °F 29.69 in Calm     60 % 0.00 in
21:33 32.9 °F 20.5 °F 29.69 in Calm   1.2 mph 60 % 0.00 in
21:38 32.8 °F 20.4 °F 29.69 in Calm   1.2 mph 60 % 0.00 in
21:43 32.7 °F 20.7 °F 29.69 in Calm     61 % 0.00 in
21:48 32.5 °F 20.5 °F 29.69 in Calm     61 % 0.00 in
21:53 32.4 °F 20.8 °F 29.69 in Calm   1.0 mph 62 % 0.00 in
21:58 32.3 °F 20.7 °F 29.69 in SW 0.2 mph 2.0 mph 62 % 0.00 in
22:03 32.1 °F 20.5 °F 29.69 in SW 0.1 mph 1.2 mph 62 % 0.00 in
22:17 31.9 °F 20.7 °F 29.69 in Calm     63 % 0.00 in
22:22 31.7 °F 20.9 °F 29.70 in Calm     64 % 0.00 in
22:27 31.6 °F 20.8 °F 29.70 in SW 0.5 mph 1.2 mph 64 % 0.00 in
22:29 31.6 °F 20.8 °F 29.69 in Calm   1.2 mph 64 % 0.00 in
22:30 31.5 °F 20.7 °F 29.70 in Calm     64 % 0.00 in
22:35 31.4 °F 21.0 °F 29.70 in Calm     65 % 0.00 in
22:40 31.3 °F 20.9 °F 29.70 in Calm     65 % 0.00 in
22:45 31.2 °F 20.8 °F 29.70 in Calm     65 % 0.00 in
22:50 31.1 °F 21.1 °F 29.70 in SW 0.1 mph 1.2 mph 66 % 0.00 in
22:56 31.0 °F 20.6 °F 29.70 in SW 0.1 mph 1.2 mph 65 % 0.00 in
23:01 30.9 °F 20.9 °F 29.70 in SW 0.1 mph 1.2 mph 66 % 0.00 in
23:06 30.8 °F 20.8 °F 29.70 in Calm     66 % 0.00 in
23:11 30.7 °F 21.0 °F 29.70 in SW 0.1 mph 1.2 mph 67 % 0.00 in
23:16 30.7 °F 21.0 °F 29.70 in Calm     67 % 0.00 in
23:21 30.6 °F 20.9 °F 29.70 in Calm     67 % 0.00 in
23:26 30.6 °F 20.9 °F 29.70 in SW 0.7 mph 2.3 mph 67 % 0.00 in
23:31 30.6 °F 21.3 °F 29.70 in Calm     68 % 0.00 in
23:36 30.5 °F 21.2 °F 29.70 in Calm     68 % 0.00 in
23:41 30.5 °F 21.2 °F 29.70 in SW 0.3 mph 2.0 mph 68 % 0.00 in
23:46 30.5 °F 21.2 °F 29.70 in SW 0.8 mph 2.0 mph 68 % 0.00 in
23:51 30.6 °F 21.3 °F 29.70 in SW 1.0 mph 2.3 mph 68 % 0.00 in
23:56 30.6 °F 21.3 °F 29.70 in SW 1.4 mph 3.0 mph 68 % 0.00 in
Crab Meadow Weather
Compliments of Weather Underground - 3 mb

Script developed by  Jim McMurry - jmcmurry@mwt.net Adapted for the template by  Wim van der Kuil - Leuven-Template.eu

Astronomy: February 1865 is the only month recorded in history not to have a full moon.